createdAt,value
2019-05-02T00:02:04.396Z,99.90
2019-05-02T00:04:34.543Z,99.90
2019-05-02T00:07:08.903Z,99.90
2019-05-02T00:09:47.253Z,99.90
2019-05-02T00:12:18.417Z,99.90
2019-05-02T00:14:50.370Z,99.90
2019-05-02T00:17:25.650Z,99.90
2019-05-02T00:19:55.440Z,99.90
2019-05-02T00:22:25.912Z,99.90
2019-05-02T00:24:56.057Z,99.90
2019-05-02T00:27:26.308Z,99.90
2019-05-02T00:29:58.628Z,99.90
2019-05-02T00:32:29.640Z,99.90
2019-05-02T00:34:59.801Z,99.90
2019-05-02T00:37:29.948Z,99.90
2019-05-02T00:40:00.204Z,99.90
2019-05-02T00:42:30.347Z,99.90
2019-05-02T00:45:00.505Z,99.90
2019-05-02T00:47:49.816Z,99.90
2019-05-02T00:50:20.902Z,99.90
2019-05-02T00:52:51.084Z,99.90
2019-05-02T00:55:21.265Z,99.90
2019-05-02T00:57:55.649Z,99.90
2019-05-02T01:00:23.297Z,99.90
2019-05-02T01:03:00.238Z,99.90
2019-05-02T01:05:33.893Z,99.90
2019-05-02T01:08:03.006Z,99.90
2019-05-02T01:10:33.439Z,99.90
2019-05-02T01:13:03.680Z,99.90
2019-05-02T01:15:33.947Z,99.90
2019-05-02T01:18:06.052Z,99.90
2019-05-02T01:20:35.956Z,99.90
2019-05-02T01:23:06.144Z,99.90
2019-05-02T01:25:39.222Z,99.90
2019-05-02T01:28:34.345Z,99.90
2019-05-02T01:31:35.806Z,99.90
2019-05-02T01:34:17.948Z,99.90
2019-05-02T01:37:02.744Z,99.90
2019-05-02T01:39:32.943Z,99.90
2019-05-02T01:42:04.096Z,99.90
2019-05-02T01:44:36.239Z,99.90
2019-05-02T01:47:07.920Z,99.90
2019-05-02T01:49:38.088Z,99.90
2019-05-02T01:52:08.283Z,99.90
2019-05-02T01:54:40.768Z,99.90
2019-05-02T01:57:10.453Z,99.90
2019-05-02T01:59:40.654Z,99.90
2019-05-02T02:02:10.807Z,99.90
2019-05-02T02:04:40.991Z,99.90
2019-05-02T02:07:14.994Z,99.90
2019-05-02T02:09:44.064Z,99.90
2019-05-02T02:12:14.910Z,99.90
2019-05-02T02:14:48.032Z,99.90
2019-05-02T02:17:17.372Z,99.90
2019-05-02T02:19:52.343Z,99.90
2019-05-02T02:22:50.575Z,99.90
2019-05-02T02:25:32.199Z,99.90
2019-05-02T02:28:03.519Z,99.90
2019-05-02T02:30:36.662Z,99.90
2019-05-02T02:33:09.428Z,99.90
2019-05-02T02:35:49.515Z,99.90
2019-05-02T02:38:10.629Z,99.90
2019-05-02T02:40:40.821Z,99.90
2019-05-02T02:43:32.209Z,99.90
2019-05-02T02:46:03.740Z,99.90
2019-05-02T02:48:40.450Z,99.90
2019-05-02T02:51:06.097Z,99.90
2019-05-02T02:53:36.281Z,99.90
2019-05-02T02:56:08.554Z,99.90
2019-05-02T02:58:45.166Z,99.90
2019-05-02T03:01:10.634Z,99.90
2019-05-02T03:03:40.891Z,99.90
2019-05-02T03:06:11.055Z,99.90
2019-05-02T03:08:46.041Z,99.90
2019-05-02T03:11:22.781Z,99.90
2019-05-02T03:14:06.177Z,99.90
2019-05-02T03:16:31.631Z,99.90
2019-05-02T03:19:01.806Z,99.90
2019-05-02T03:21:32.149Z,99.90
2019-05-02T03:24:05.395Z,99.90
2019-05-02T03:26:34.221Z,99.90
2019-05-02T03:29:04.397Z,99.90
2019-05-02T03:31:34.636Z,99.90
2019-05-02T03:34:05.120Z,99.90
2019-05-02T03:36:37.085Z,99.90
2019-05-02T03:39:14.752Z,99.90
2019-05-02T03:41:40.092Z,99.90
2019-05-02T03:44:18.077Z,99.90
2019-05-02T03:46:42.965Z,99.90
2019-05-02T03:49:13.144Z,99.90
2019-05-02T03:51:43.428Z,99.90
2019-05-02T03:54:13.580Z,99.90
2019-05-02T03:56:44.910Z,99.90
2019-05-02T03:59:16.008Z,99.90
2019-05-02T04:01:46.159Z,99.90
2019-05-02T04:04:20.743Z,99.90
2019-05-02T04:06:55.097Z,99.90
2019-05-02T04:09:45.852Z,99.90
2019-05-02T04:12:19.294Z,99.90
2019-05-02T04:14:55.517Z,99.90
2019-05-02T04:17:21.743Z,99.90
2019-05-02T04:19:51.934Z,99.90
2019-05-02T04:22:23.203Z,99.90
2019-05-02T04:24:56.417Z,99.90
2019-05-02T04:27:27.654Z,99.90
2019-05-02T04:29:57.566Z,99.90
2019-05-02T04:32:27.724Z,99.90
2019-05-02T04:34:59.020Z,99.90
2019-05-02T04:37:34.507Z,99.90
2019-05-02T04:40:03.394Z,99.90
2019-05-02T04:42:32.951Z,99.90
2019-05-02T04:45:20.723Z,99.90
2019-05-02T04:47:34.990Z,99.90
2019-05-02T04:50:07.979Z,99.90
2019-05-02T04:52:38.368Z,99.90
2019-05-02T04:55:19.807Z,99.90
2019-05-02T04:57:47.101Z,99.90
2019-05-02T05:00:13.504Z,99.90
2019-05-02T05:02:43.652Z,99.90
2019-05-02T05:05:25.360Z,99.90
2019-05-02T05:07:49.502Z,99.90
2019-05-02T05:10:19.910Z,99.90
2019-05-02T05:12:51.654Z,99.90
2019-05-02T05:15:35.505Z,99.90
2019-05-02T05:17:53.686Z,99.90
2019-05-02T05:20:23.844Z,99.90
2019-05-02T05:22:54.020Z,99.90
2019-05-02T05:25:31.204Z,99.90
2019-05-02T05:28:05.946Z,99.90
2019-05-02T05:30:37.722Z,99.90
2019-05-02T05:33:07.658Z,99.90
2019-05-02T05:35:38.548Z,99.90
2019-05-02T05:38:09.994Z,99.90
2019-05-02T05:40:40.211Z,99.90
2019-05-02T05:43:14.360Z,99.90
2019-05-02T05:45:53.831Z,99.90
2019-05-02T05:48:14.142Z,99.90
2019-05-02T05:50:44.340Z,99.90
2019-05-02T05:53:17.201Z,99.90
2019-05-02T05:55:47.333Z,99.90
2019-05-02T05:58:18.761Z,99.90
2019-05-02T06:00:53.735Z,99.90
2019-05-02T06:03:20.903Z,99.90
2019-05-02T06:05:51.085Z,99.90
2019-05-02T06:08:21.248Z,99.90
2019-05-02T06:10:51.435Z,99.90
2019-05-02T06:13:21.627Z,99.90
2019-05-02T06:16:02.078Z,99.90
2019-05-02T06:18:24.828Z,99.90
2019-05-02T06:20:54.979Z,99.90
2019-05-02T06:23:25.193Z,99.90
2019-05-02T06:25:55.344Z,99.90
2019-05-02T06:28:25.540Z,99.90
2019-05-02T06:30:55.728Z,99.90
2019-05-02T06:33:30.418Z,99.90
2019-05-02T06:36:01.107Z,99.90
2019-05-02T06:38:29.767Z,99.90
2019-05-02T06:40:59.926Z,99.90
2019-05-02T06:43:30.104Z,99.90
2019-05-02T06:46:00.243Z,99.90
2019-05-02T06:48:30.540Z,99.90
2019-05-02T06:51:00.707Z,99.90
2019-05-02T06:53:30.880Z,99.90
2019-05-02T06:56:01.158Z,99.90
2019-05-02T06:58:31.379Z,99.90
2019-05-02T07:01:02.476Z,99.90
2019-05-02T07:03:32.620Z,99.90
2019-05-02T07:06:04.204Z,99.90
2019-05-02T07:08:34.780Z,99.90
2019-05-02T07:11:05.641Z,99.90
2019-05-02T07:13:36.168Z,99.90
2019-05-02T07:16:18.106Z,99.90
2019-05-02T07:18:52.335Z,99.90
2019-05-02T07:21:23.569Z,99.90
2019-05-02T07:23:55.208Z,99.90
2019-05-02T07:26:25.535Z,99.90
2019-05-02T07:28:55.699Z,99.90
2019-05-02T07:31:25.891Z,99.90
2019-05-02T07:33:56.062Z,99.90
2019-05-02T07:36:26.231Z,99.90
2019-05-02T07:38:57.022Z,99.90
2019-05-02T07:41:28.959Z,99.90
2019-05-02T07:44:00.227Z,99.90
2019-05-02T07:46:30.426Z,99.90
2019-05-02T07:49:00.599Z,99.90
2019-05-02T07:51:30.790Z,99.90
2019-05-02T07:54:00.961Z,99.90
2019-05-02T07:56:31.236Z,99.90
2019-05-02T07:59:01.395Z,99.90
2019-05-02T08:01:31.660Z,99.90
2019-05-02T08:04:04.631Z,99.90
2019-05-02T08:06:35.387Z,99.90
2019-05-02T08:09:09.174Z,99.90
2019-05-02T08:11:39.819Z,99.90
2019-05-02T08:14:10.070Z,99.90
2019-05-02T08:16:40.252Z,99.90
2019-05-02T08:19:10.449Z,99.90
2019-05-02T08:22:04.045Z,99.90
2019-05-02T08:24:33.099Z,99.90
2019-05-02T08:27:41.019Z,99.90
2019-05-02T08:30:21.133Z,99.90
2019-05-02T08:32:51.587Z,99.90
2019-05-02T08:35:21.775Z,99.90
2019-05-02T08:37:51.963Z,99.90
2019-05-02T08:40:22.139Z,99.90
2019-05-02T08:42:56.936Z,99.90
2019-05-02T08:45:27.147Z,1.00
2019-05-02T08:48:00.225Z,99.90
2019-05-02T08:50:31.930Z,1.00
2019-05-02T08:53:01.094Z,2.80
2019-05-02T08:55:31.483Z,1.00
2019-05-02T08:58:06.600Z,1.00
2019-05-02T09:00:37.451Z,1.00
2019-05-02T09:03:05.554Z,99.90
2019-05-02T09:05:37.006Z,1.00
2019-05-02T09:08:14.450Z,1.00
2019-05-02T09:10:43.387Z,1.00
2019-05-02T09:13:17.913Z,1.00
2019-05-02T09:15:50.988Z,1.00
2019-05-02T09:18:17.615Z,67.50
2019-05-02T09:20:52.558Z,1.00
2019-05-02T09:23:19.648Z,1.00
2019-05-02T09:25:51.829Z,1.00
2019-05-02T09:28:25.261Z,99.90
2019-05-02T09:30:57.322Z,1.00
2019-05-02T09:33:25.452Z,1.00
2019-05-02T09:35:55.637Z,1.00
2019-05-02T09:38:26.914Z,1.00
2019-05-02T09:40:58.184Z,1.00
2019-05-02T09:43:29.247Z,1.00
2019-05-02T09:46:02.429Z,1.00
2019-05-02T09:48:32.096Z,99.90
2019-05-02T09:51:06.017Z,99.90
2019-05-02T09:53:34.165Z,99.90
2019-05-02T09:56:04.529Z,99.90
2019-05-02T09:58:34.728Z,99.90
2019-05-02T10:01:13.460Z,99.90
2019-05-02T10:03:43.808Z,99.90
2019-05-02T10:06:18.134Z,99.90
2019-05-02T10:08:46.760Z,1.00
2019-05-02T10:11:22.555Z,1.00
2019-05-02T10:13:51.750Z,42.10
2019-05-02T10:16:23.573Z,53.10
2019-05-02T10:18:53.760Z,99.90
2019-05-02T10:21:23.972Z,99.90
2019-05-02T10:23:59.273Z,30.00
2019-05-02T10:26:26.068Z,1.00
2019-05-02T10:28:56.510Z,1.00
2019-05-02T10:31:27.479Z,7.50
2019-05-02T10:33:58.570Z,90.50
2019-05-02T10:36:28.755Z,99.90
2019-05-02T10:38:59.418Z,99.90
2019-05-02T10:41:31.685Z,99.90
2019-05-02T10:44:02.193Z,99.90
2019-05-02T10:47:03.654Z,99.90
2019-05-02T10:49:48.898Z,96.90
2019-05-02T10:52:21.680Z,8.20
2019-05-02T10:54:52.805Z,99.90
2019-05-02T10:57:23.321Z,1.00
2019-05-02T10:59:56.053Z,1.00
2019-05-02T11:02:53.373Z,1.00
2019-05-02T11:05:26.605Z,1.00
2019-05-02T11:08:04.817Z,1.00
2019-05-02T11:10:32.380Z,1.00
2019-05-02T11:13:29.335Z,1.00
2019-05-02T11:16:21.715Z,1.00
2019-05-02T11:18:58.232Z,1.00
2019-05-02T11:21:28.408Z,1.00
2019-05-02T11:23:58.660Z,1.00
2019-05-02T11:26:28.939Z,1.00
2019-05-02T11:28:59.239Z,1.00
2019-05-02T11:31:29.626Z,1.00
2019-05-02T11:34:01.645Z,1.00
2019-05-02T11:36:32.778Z,1.00
2019-05-02T11:39:15.877Z,1.00
2019-05-02T11:41:38.187Z,1.00
2019-05-02T11:44:08.423Z,1.00
2019-05-02T11:46:42.959Z,1.00
2019-05-02T11:49:12.237Z,1.00
2019-05-02T11:51:42.371Z,1.00
2019-05-02T11:54:13.100Z,1.00
2019-05-02T11:56:48.779Z,1.00
2019-05-02T11:59:22.582Z,1.00
2019-05-02T12:02:09.424Z,1.00
2019-05-02T12:04:41.695Z,1.00
2019-05-02T12:07:12.752Z,1.00
2019-05-02T12:09:51.013Z,1.00
2019-05-02T12:12:15.976Z,1.00
2019-05-02T12:14:46.213Z,1.00
2019-05-02T12:17:16.412Z,1.00
2019-05-02T12:19:46.621Z,1.00
2019-05-02T12:22:17.078Z,1.00
2019-05-02T12:24:47.354Z,1.00
2019-05-02T12:27:17.612Z,1.00
2019-05-02T12:29:50.148Z,1.00
2019-05-02T12:32:19.993Z,1.00
2019-05-02T12:34:50.175Z,1.00
2019-05-02T12:37:21.895Z,1.00
2019-05-02T12:39:52.465Z,1.00
2019-05-02T12:42:23.929Z,1.00
2019-05-02T12:44:54.597Z,1.00
2019-05-02T12:47:24.866Z,1.00
2019-05-02T12:49:55.096Z,1.00
2019-05-02T12:52:25.311Z,1.00
2019-05-02T12:54:55.691Z,1.00
2019-05-02T12:57:26.111Z,1.00
2019-05-02T12:59:56.504Z,1.00
2019-05-02T13:02:36.496Z,1.00
2019-05-02T13:05:06.734Z,1.00
2019-05-02T13:07:36.910Z,1.00
2019-05-02T13:10:07.299Z,1.00
2019-05-02T13:12:38.902Z,1.00
2019-05-02T13:15:09.543Z,1.00
2019-05-02T13:17:43.860Z,1.00
2019-05-02T13:20:13.676Z,1.00
2019-05-02T13:23:03.416Z,1.00
2019-05-02T13:25:36.926Z,1.00
2019-05-02T13:28:05.687Z,48.30
2019-05-02T13:30:55.731Z,1.00
2019-05-02T13:33:35.837Z,1.00
2019-05-02T13:36:04.753Z,1.00
2019-05-02T13:38:34.969Z,62.80
2019-05-02T13:41:05.121Z,1.00
2019-05-02T13:43:42.623Z,1.00
2019-05-02T13:46:17.009Z,99.90
2019-05-02T13:48:47.210Z,99.90
2019-05-02T13:51:17.404Z,99.90
2019-05-02T13:54:12.697Z,99.90
2019-05-02T13:56:52.832Z,99.90
2019-05-02T13:59:22.648Z,99.90
2019-05-02T14:01:54.130Z,99.90
2019-05-02T14:04:24.437Z,99.90
2019-05-02T14:06:54.775Z,99.90
2019-05-02T14:09:50.844Z,1.00
2019-05-02T14:12:39.795Z,99.90
2019-05-02T14:15:11.707Z,99.90
2019-05-02T14:17:42.362Z,51.60
2019-05-02T14:20:13.783Z,1.00
2019-05-02T14:22:44.149Z,1.00
2019-05-02T14:25:14.772Z,1.00
2019-05-02T14:27:46.971Z,1.00
2019-05-02T14:30:33.751Z,1.00
2019-05-02T14:32:52.368Z,1.00
2019-05-02T14:35:28.186Z,99.90
2019-05-02T14:38:13.119Z,1.00
2019-05-02T14:40:53.321Z,1.00
2019-05-02T14:43:46.201Z,1.00
2019-05-02T14:46:13.327Z,1.00
2019-05-02T14:48:46.013Z,1.00
2019-05-02T14:51:21.348Z,1.00
2019-05-02T14:53:48.388Z,99.90
2019-05-02T14:56:47.784Z,99.90
2019-05-02T14:59:19.755Z,1.00
2019-05-02T15:01:57.737Z,1.00
2019-05-02T15:04:25.217Z,1.00
2019-05-02T15:06:55.438Z,1.00
2019-05-02T15:09:26.999Z,99.90
2019-05-02T15:12:03.059Z,1.00
2019-05-02T15:14:34.822Z,1.00
2019-05-02T15:17:05.948Z,1.00
2019-05-02T15:19:36.125Z,99.90
2019-05-02T15:22:06.644Z,99.90
2019-05-02T15:24:38.062Z,99.90
2019-05-02T15:27:17.289Z,99.90
2019-05-02T15:29:42.031Z,99.90
2019-05-02T15:32:46.448Z,99.90
2019-05-02T15:35:24.895Z,99.90
2019-05-02T15:37:56.701Z,99.90
2019-05-02T15:40:43.238Z,99.90
2019-05-02T15:43:04.144Z,99.90
2019-05-02T15:45:32.171Z,99.90
2019-05-02T15:48:02.743Z,99.90
2019-05-02T15:50:33.554Z,99.90
2019-05-02T15:53:13.491Z,99.90
2019-05-02T15:55:45.771Z,99.90
2019-05-02T15:58:23.047Z,99.90
2019-05-02T16:01:01.740Z,99.90
2019-05-02T16:03:45.878Z,99.90
2019-05-02T16:06:16.502Z,99.90
2019-05-02T16:08:47.399Z,99.90
2019-05-02T16:11:19.112Z,99.90
2019-05-02T16:13:55.491Z,99.90
2019-05-02T16:16:24.252Z,99.90
2019-05-02T16:18:55.349Z,99.90
2019-05-02T16:21:32.600Z,99.90
2019-05-02T16:24:23.150Z,99.90
2019-05-02T16:26:57.313Z,99.90
2019-05-02T16:29:28.887Z,99.90
2019-05-02T16:32:18.656Z,99.90
2019-05-02T16:35:11.926Z,99.90
2019-05-02T16:37:39.259Z,99.90
2019-05-02T16:40:12.592Z,99.90
2019-05-02T16:42:43.052Z,99.90
2019-05-02T16:45:17.020Z,99.90
2019-05-02T16:47:49.838Z,99.90
2019-05-02T16:50:22.696Z,99.90
2019-05-02T16:52:53.668Z,99.90
2019-05-02T16:55:26.545Z,99.90
2019-05-02T16:58:05.195Z,99.90
2019-05-02T17:00:31.850Z,99.90
2019-05-02T17:03:03.865Z,99.90
2019-05-02T17:05:39.183Z,99.90
2019-05-02T17:08:20.016Z,99.90
2019-05-02T17:10:58.912Z,99.90
2019-05-02T17:13:34.277Z,99.90
2019-05-02T17:16:06.923Z,99.90
2019-05-02T17:18:33.872Z,99.90
2019-05-02T17:21:04.643Z,99.90
2019-05-02T17:23:37.541Z,99.90
2019-05-02T17:26:07.181Z,99.90
2019-05-02T17:28:38.139Z,99.90
2019-05-02T17:31:10.835Z,99.90
2019-05-02T17:33:41.693Z,99.90
2019-05-02T17:36:12.072Z,99.90
2019-05-02T17:38:45.342Z,99.90
2019-05-02T17:41:15.523Z,99.90
2019-05-02T17:43:45.881Z,99.90
2019-05-02T17:46:18.287Z,99.90
2019-05-02T17:48:52.786Z,99.90
2019-05-02T17:51:33.897Z,99.90
2019-05-02T17:54:03.531Z,99.90
2019-05-02T17:56:33.804Z,99.90
2019-05-02T17:59:04.126Z,99.90
2019-05-02T18:01:38.097Z,99.90
2019-05-02T18:04:12.655Z,99.90
2019-05-02T18:06:41.693Z,99.90
2019-05-02T18:09:12.331Z,99.90
2019-05-02T18:11:42.748Z,99.90
2019-05-02T18:14:19.536Z,99.90
2019-05-02T18:16:47.097Z,99.90
2019-05-02T18:19:23.603Z,99.90
2019-05-02T18:21:48.780Z,99.90
2019-05-02T18:24:19.147Z,99.90
2019-05-02T18:26:49.360Z,99.90
2019-05-02T18:29:19.696Z,99.90
2019-05-02T18:31:52.042Z,99.90
2019-05-02T18:34:25.233Z,99.90
2019-05-02T18:36:57.474Z,99.90
2019-05-02T18:39:26.107Z,99.90
2019-05-02T18:41:56.331Z,99.90
2019-05-02T18:44:26.657Z,99.90
2019-05-02T18:46:57.872Z,99.90
2019-05-02T18:49:32.142Z,99.90
2019-05-02T18:52:02.685Z,99.90
2019-05-02T18:54:33.864Z,99.90
2019-05-02T18:57:06.020Z,99.90
2019-05-02T18:59:36.324Z,99.90
2019-05-02T19:02:06.822Z,99.90
2019-05-02T19:04:39.707Z,99.90
2019-05-02T19:07:12.769Z,99.90
2019-05-02T19:09:50.400Z,99.90
2019-05-02T19:12:21.433Z,99.90
2019-05-02T19:14:45.075Z,99.90
2019-05-02T19:17:15.703Z,99.90
2019-05-02T19:19:46.166Z,99.90
2019-05-02T19:22:17.035Z,99.90
2019-05-02T19:24:47.476Z,99.90
2019-05-02T19:27:38.542Z,99.90
2019-05-02T19:30:09.597Z,99.90
2019-05-02T19:32:41.614Z,99.90
2019-05-02T19:35:12.182Z,99.90
2019-05-02T19:37:45.478Z,99.90
2019-05-02T19:40:20.142Z,99.90
2019-05-02T19:42:47.915Z,99.90
2019-05-02T19:45:18.125Z,99.90
2019-05-02T19:47:49.043Z,99.90
2019-05-02T19:50:47.473Z,99.90
2019-05-02T19:53:19.616Z,99.90
2019-05-02T19:55:51.996Z,99.90
2019-05-02T19:58:22.625Z,99.90
2019-05-02T20:00:53.105Z,99.90
2019-05-02T20:03:26.048Z,99.90
2019-05-02T20:05:56.600Z,99.90
2019-05-02T20:08:27.303Z,99.90
2019-05-02T20:10:58.464Z,99.90
2019-05-02T20:13:30.582Z,99.90
2019-05-02T20:16:06.313Z,99.90
2019-05-02T20:18:45.580Z,99.90
2019-05-02T20:21:23.527Z,99.90
2019-05-02T20:23:49.462Z,99.90
2019-05-02T20:26:21.968Z,99.90
2019-05-02T20:28:52.821Z,99.90
2019-05-02T20:31:26.404Z,99.90
2019-05-02T20:33:56.610Z,99.90
2019-05-02T20:36:26.974Z,99.90
2019-05-02T20:38:57.136Z,99.90
2019-05-02T20:41:27.362Z,99.90
2019-05-02T20:43:57.620Z,99.90
2019-05-02T20:46:27.997Z,99.90
2019-05-02T20:48:58.175Z,99.90
2019-05-02T20:51:28.347Z,99.90
2019-05-02T20:53:58.703Z,99.90
2019-05-02T20:56:29.068Z,99.90
2019-05-02T20:58:59.371Z,99.90
2019-05-02T21:01:29.527Z,99.90
2019-05-02T21:03:59.796Z,99.90
2019-05-02T21:06:42.003Z,99.90
2019-05-02T21:09:29.327Z,99.90
2019-05-02T21:12:02.476Z,99.90
2019-05-02T21:14:32.692Z,99.90
2019-05-02T21:17:02.937Z,99.90
2019-05-02T21:19:34.272Z,99.90
2019-05-02T21:22:08.759Z,99.90
2019-05-02T21:24:39.138Z,99.90
2019-05-02T21:27:10.296Z,99.90
2019-05-02T21:29:42.498Z,99.90
2019-05-02T21:32:12.347Z,99.90
2019-05-02T21:34:42.611Z,99.90
2019-05-02T21:37:12.949Z,99.90
2019-05-02T21:39:43.129Z,99.90
2019-05-02T21:42:13.314Z,99.90
2019-05-02T21:44:43.473Z,99.90
2019-05-02T21:47:13.702Z,99.90
2019-05-02T21:50:15.539Z,99.90
2019-05-02T21:53:18.451Z,99.90
2019-05-02T21:56:07.989Z,99.90
2019-05-02T21:58:38.313Z,99.90
2019-05-02T22:01:13.124Z,99.90
2019-05-02T22:03:43.567Z,99.90
2019-05-02T22:06:13.756Z,99.90
2019-05-02T22:08:44.071Z,99.90
2019-05-02T22:11:14.255Z,99.90
2019-05-02T22:13:44.503Z,99.90
2019-05-02T22:16:14.797Z,99.90
2019-05-02T22:18:45.043Z,99.90
2019-05-02T22:21:15.206Z,99.90
2019-05-02T22:23:45.512Z,99.90
2019-05-02T22:26:15.742Z,99.90
2019-05-02T22:28:45.985Z,99.90
2019-05-02T22:31:16.183Z,99.90
2019-05-02T22:33:46.431Z,99.90
2019-05-02T22:36:16.657Z,99.90
2019-05-02T22:39:06.827Z,99.90
2019-05-02T22:41:37.232Z,99.90
2019-05-02T22:44:07.416Z,99.90
2019-05-02T22:46:43.137Z,99.90
2019-05-02T22:49:15.107Z,99.90
2019-05-02T22:51:45.668Z,99.90
2019-05-02T22:54:26.900Z,99.90
2019-05-02T22:56:52.662Z,99.90
2019-05-02T22:59:24.080Z,99.90
2019-05-02T23:01:55.445Z,99.90
2019-05-02T23:04:25.719Z,99.90
2019-05-02T23:06:55.871Z,99.90
2019-05-02T23:09:26.116Z,99.90
2019-05-02T23:11:56.284Z,99.90
2019-05-02T23:14:26.499Z,99.90
2019-05-02T23:16:56.647Z,99.90
2019-05-02T23:19:26.864Z,99.90
2019-05-02T23:21:57.032Z,99.90
2019-05-02T23:24:42.575Z,99.90
2019-05-02T23:27:46.995Z,99.90
2019-05-02T23:30:22.402Z,99.90
2019-05-02T23:32:52.578Z,99.90
2019-05-02T23:35:23.815Z,99.90
2019-05-02T23:37:54.004Z,99.90
2019-05-02T23:40:25.143Z,99.90
2019-05-02T23:42:55.325Z,99.90
2019-05-02T23:45:25.535Z,99.90
2019-05-02T23:47:55.731Z,99.90
2019-05-02T23:50:25.925Z,99.90
2019-05-02T23:52:56.108Z,99.90
2019-05-02T23:55:26.322Z,99.90
2019-05-02T23:57:57.615Z,99.90
